Makita — V2ET2 — position and weather

sailwx.info

Track history (hours):
 
Tides and Currents Weather Stations Pressure Air Temp Water Temp Dewpoint Dewpoint Depression Visibility Wind Speed Wind Dir Waves Ship Positions

Makita

Last reported at 2015-Jan-07 06:28 UTC. Time now 2015-Jan-26 12:32 UTC.
Position N 01°56' E 102°19'.
Warning: this ship's position is 19 days out of date.

Length 260 m; draft 11.3 m.

Type: Cargo ship. MMSI: 305543000.

Date/timePositionNaut miles runAvg speedWind from/ knotsBaromVisibWave heightAir tempDewpointWater temp
2015-Jan-07 06:28N 01°56' E 102°19'1212.8
2015-Jan-07 05:33N 01°51' E 102°30'1312.0
2015-Jan-07 04:29N 01°45' E 102°42'70 9.5
2015-Jan-06 21:06N 01°17' E 103°45'0 0.0
2015-Jan-06 20:33N 01°17' E 103°45'0 0.0
2015-Jan-06 19:30N 01°17' E 103°45'0 0.0
2015-Jan-06 18:24N 01°17' E 103°45'0 0.0
2015-Jan-06 17:30N 01°17' E 103°45'0 0.0
2015-Jan-06 16:33N 01°17' E 103°45'0 0.0
2015-Jan-06 14:21N 01°17' E 103°45'0 0.0
2015-Jan-06 12:30N 01°17' E 103°45'0 0.0
2015-Jan-06 10:33N 01°17' E 103°45'0 0.0
2015-Jan-06 09:33N 01°17' E 103°45'5 2.3
2015-Jan-06 07:31N 01°13' E 103°48'6 2.5
2015-Jan-06 05:09N 01°14' E 103°54'0 0.2
2015-Jan-06 04:30N 01°14' E 103°54'0 0.1
2015-Jan-06 03:12N 01°14' E 103°54'0 0.0
2015-Jan-06 02:21N 01°14' E 103°54'0 0.0
2015-Jan-06 00:27N 01°14' E 103°54'0 0.0
2015-Jan-05 23:24N 01°14' E 103°54'1 0.7
2015-Jan-05 21:30N 01°13' E 103°53'5 4.8
2015-Jan-05 20:33N 01°15' E 103°57'9 8.7
2015-Jan-05 19:33N 01°16' E 104°06'1010.3
2015-Jan-05 18:33N 01°18' E 104°16'  
2014-Dec-31 12:04N 21°54' E 114°24'1111.6
2014-Dec-31 11:10N 22°05' E 114°24'914.1
2014-Dec-31 10:33N 22°08' E 114°15'1313.1
2014-Dec-31 09:33N 22°18' E 114°06'3 2.6
2014-Dec-31 08:28N 22°20' E 114°08'0 0.0
2014-Dec-31 07:31N 22°20' E 114°08'0 0.0
2014-Dec-31 06:28N 22°20' E 114°08'0 0.0
2014-Dec-31 05:31N 22°20' E 114°08'0 0.0
2014-Dec-31 04:28N 22°20' E 114°08'0 0.0
2014-Dec-31 03:31N 22°20' E 114°08'0 0.1
2014-Dec-31 02:25N 22°20' E 114°08'2 2.8
2014-Dec-31 01:33N 22°18' E 114°06'12 9.0
2014-Dec-31 00:12N 22°09' E 114°14'1710.4
2014-Dec-30 22:31N 22°09' E 114°33'18711.5
2014-Dec-30 06:17N 23°26' E 117°37'811.2
2014-Dec-30 05:33N 23°31' E 117°45'1211.2
2014-Dec-30 04:29N 23°38' E 117°55'1111.8
2014-Dec-30 03:34N 23°45' E 118°04'1615.6
2014-Dec-30 02:33N 23°54' E 118°18'1715.1
2014-Dec-30 01:27N 24°04' E 118°33'2412.5
2014-Dec-29 23:31N 24°18' E 118°54'1312.2
2014-Dec-29 22:28N 24°27' E 119°05'1111.6
2014-Dec-29 21:33N 24°33' E 119°14'33811.2
2014-Dec-28 15:24N 29°23' E 122°30'1212.8
2014-Dec-28 14:27N 29°35' E 122°28'1213.2
2014-Dec-28 13:31N 29°45' E 122°19'1111.1
2014-Dec-28 12:33N 29°49' E 122°08'7 2.0
2014-Dec-28 09:06N 29°46' E 122°00'0 0.0
2014-Dec-28 08:06N 29°46' E 122°00'  
Track history (hours):
 
Tides and Currents Weather Stations Pressure Air Temp Water Temp Dewpoint Dewpoint Depression Visibility Wind Speed Wind Dir Waves Ship Positions

Makita

Last reported at 2015-Jan-07 06:28 UTC. Time now 2015-Jan-26 12:32 UTC.
Position N 01°56' E 102°19'.
Warning: this ship's position is 19 days out of date.

Length 260 m; draft 11.3 m.

Type: Cargo ship. MMSI: 305543000.

Date/timePositionNaut miles runAvg speedWind from/ knotsBaromVisibWave heightAir tempDewpointWater temp
2015-Jan-07 06:28N 01°56' E 102°19'1212.8
2015-Jan-07 05:33N 01°51' E 102°30'1312.0
2015-Jan-07 04:29N 01°45' E 102°42'70 9.5
2015-Jan-06 21:06N 01°17' E 103°45'0 0.0
2015-Jan-06 20:33N 01°17' E 103°45'0 0.0
2015-Jan-06 19:30N 01°17' E 103°45'0 0.0
2015-Jan-06 18:24N 01°17' E 103°45'0 0.0
2015-Jan-06 17:30N 01°17' E 103°45'0 0.0
2015-Jan-06 16:33N 01°17' E 103°45'0 0.0
2015-Jan-06 14:21N 01°17' E 103°45'0 0.0
2015-Jan-06 12:30N 01°17' E 103°45'0 0.0
2015-Jan-06 10:33N 01°17' E 103°45'0 0.0
2015-Jan-06 09:33N 01°17' E 103°45'5 2.3
2015-Jan-06 07:31N 01°13' E 103°48'6 2.5
2015-Jan-06 05:09N 01°14' E 103°54'0 0.2
2015-Jan-06 04:30N 01°14' E 103°54'0 0.1
2015-Jan-06 03:12N 01°14' E 103°54'0 0.0
2015-Jan-06 02:21N 01°14' E 103°54'0 0.0
2015-Jan-06 00:27N 01°14' E 103°54'0 0.0
2015-Jan-05 23:24N 01°14' E 103°54'1 0.7
2015-Jan-05 21:30N 01°13' E 103°53'5 4.8
2015-Jan-05 20:33N 01°15' E 103°57'9 8.7
2015-Jan-05 19:33N 01°16' E 104°06'1010.3
2015-Jan-05 18:33N 01°18' E 104°16'  
2014-Dec-31 12:04N 21°54' E 114°24'1111.6
2014-Dec-31 11:10N 22°05' E 114°24'914.1
2014-Dec-31 10:33N 22°08' E 114°15'1313.1
2014-Dec-31 09:33N 22°18' E 114°06'3 2.6
2014-Dec-31 08:28N 22°20' E 114°08'0 0.0
2014-Dec-31 07:31N 22°20' E 114°08'0 0.0
2014-Dec-31 06:28N 22°20' E 114°08'0 0.0
2014-Dec-31 05:31N 22°20' E 114°08'0 0.0
2014-Dec-31 04:28N 22°20' E 114°08'0 0.0
2014-Dec-31 03:31N 22°20' E 114°08'0 0.1
2014-Dec-31 02:25N 22°20' E 114°08'2 2.8
2014-Dec-31 01:33N 22°18' E 114°06'12 9.0
2014-Dec-31 00:12N 22°09' E 114°14'1710.4
2014-Dec-30 22:31N 22°09' E 114°33'18711.5
2014-Dec-30 06:17N 23°26' E 117°37'811.2
2014-Dec-30 05:33N 23°31' E 117°45'1211.2
2014-Dec-30 04:29N 23°38' E 117°55'1111.8
2014-Dec-30 03:34N 23°45' E 118°04'1615.6
2014-Dec-30 02:33N 23°54' E 118°18'1715.1
2014-Dec-30 01:27N 24°04' E 118°33'2412.5
2014-Dec-29 23:31N 24°18' E 118°54'1312.2
2014-Dec-29 22:28N 24°27' E 119°05'1111.6
2014-Dec-29 21:33N 24°33' E 119°14'33811.2
2014-Dec-28 15:24N 29°23' E 122°30'1212.8
2014-Dec-28 14:27N 29°35' E 122°28'1213.2
2014-Dec-28 13:31N 29°45' E 122°19'1111.1
2014-Dec-28 12:33N 29°49' E 122°08'7 2.0
2014-Dec-28 09:06N 29°46' E 122°00'0 0.0
2014-Dec-28 08:06N 29°46' E 122°00'  

Dump ship's entire track history